sensor_id;sensor_type;location;lat;lon;timestamp;pressure;altitude;pressure_sealevel;temperature;humidity
68075;BME280;54864;52.002;5.468;2023-10-19T00:00:07;99112.84;;;12.56;100.00
68075;BME280;54864;52.002;5.468;2023-10-19T00:01:20;99117.41;;;12.65;100.00
68075;BME280;54864;52.002;5.468;2023-10-19T00:02:24;99115.97;;;12.61;100.00
68075;BME280;54864;52.002;5.468;2023-10-19T00:03:25;99118.03;;;12.58;100.00
68075;BME280;54864;52.002;5.468;2023-10-19T00:04:27;99117.31;;;12.56;100.00
68075;BME280;54864;52.002;5.468;2023-10-19T00:05:32;99113.19;;;12.63;100.00
68075;BME280;54864;52.002;5.468;2023-10-19T00:06:33;99123.31;;;12.58;100.00
68075;BME280;54864;52.002;5.468;2023-10-19T00:07:34;99120.53;;;12.59;100.00
68075;BME280;54864;52.002;5.468;2023-10-19T00:08:34;99112.84;;;12.56;100.00
68075;BME280;54864;52.002;5.468;2023-10-19T00:09:42;99113.47;;;12.49;100.00
68075;BME280;54864;52.002;5.468;2023-10-19T00:10:47;99111.31;;;12.54;100.00
68075;BME280;54864;52.002;5.468;2023-10-19T00:11:50;99120.06;;;12.54;100.00
68075;BME280;54864;52.002;5.468;2023-10-19T00:12:52;99110.09;;;12.58;100.00
68075;BME280;54864;52.002;5.468;2023-10-19T00:14:02;99110.31;;;12.66;100.00
68075;BME280;54864;52.002;5.468;2023-10-19T00:15:04;99106.59;;;12.57;100.00
68075;BME280;54864;52.002;5.468;2023-10-19T00:16:09;99110.81;;;12.60;100.00
68075;BME280;54864;52.002;5.468;2023-10-19T00:17:12;99107.31;;;12.59;100.00
68075;BME280;54864;52.002;5.468;2023-10-19T00:18:15;99117.16;;;12.68;100.00
68075;BME280;54864;52.002;5.468;2023-10-19T00:19:24;99105.38;;;12.61;100.00
68075;BME280;54864;52.002;5.468;2023-10-19T00:20:28;99096.97;;;12.67;100.00
68075;BME280;54864;52.002;5.468;2023-10-19T00:21:37;99106.59;;;12.57;100.00
68075;BME280;54864;52.002;5.468;2023-10-19T00:22:50;99110.22;;;12.56;100.00
68075;BME280;54864;52.002;5.468;2023-10-19T00:23:54;99101.31;;;12.57;100.00
68075;BME280;54864;52.002;5.468;2023-10-19T00:24:57;99103.72;;;12.60;100.00
68075;BME280;54864;52.002;5.468;2023-10-19T00:26:00;99100.09;;;12.61;100.00
68075;BME280;54864;52.002;5.468;2023-10-19T00:27:08;99103.94;;;12.68;100.00
68075;BME280;54864;52.002;5.468;2023-10-19T00:28:15;99102.50;;;12.64;100.00
68075;BME280;54864;52.002;5.468;2023-10-19T00:29:19;99104.56;;;12.61;100.00
68075;BME280;54864;52.002;5.468;2023-10-19T00:30:32;99112.94;;;12.66;100.00
68075;BME280;54864;52.002;5.468;2023-10-19T00:31:35;99113.38;;;12.82;100.00
68075;BME280;54864;52.002;5.468;2023-10-19T00:32:40;99109.75;;;12.83;100.00
68075;BME280;54864;52.002;5.468;2023-10-19T00:33:41;99107.56;;;12.88;100.00
68075;BME280;54864;52.002;5.468;2023-10-19T00:34:43;99099.38;;;12.91;100.00
68075;BME280;54864;52.002;5.468;2023-10-19T00:35:50;99097.84;;;12.89;100.00
68075;BME280;54864;52.002;5.468;2023-10-19T00:36:57;99102.09;;;12.80;100.00
68075;BME280;54864;52.002;5.468;2023-10-19T00:38:08;99107.72;;;12.87;100.00
68075;BME280;54864;52.002;5.468;2023-10-19T00:39:27;99101.63;;;12.75;100.00
68075;BME280;54864;52.002;5.468;2023-10-19T00:40:40;99100.78;;;12.75;100.00
68075;BME280;54864;52.002;5.468;2023-10-19T00:41:41;99101.13;;;12.81;100.00
68075;BME280;54864;52.002;5.468;2023-10-19T00:42:45;99114.09;;;12.84;100.00
68075;BME280;54864;52.002;5.468;2023-10-19T00:43:53;99094.47;;;12.87;100.00
68075;BME280;54864;52.002;5.468;2023-10-19T00:44:59;99095.06;;;12.90;100.00
68075;BME280;54864;52.002;5.468;2023-10-19T00:46:04;99091.25;;;12.83;100.00
68075;BME280;54864;52.002;5.468;2023-10-19T00:47:10;99103.38;;;12.86;100.00
68075;BME280;54864;52.002;5.468;2023-10-19T00:48:13;99108.41;;;12.89;100.00
68075;BME280;54864;52.002;5.468;2023-10-19T00:49:18;99098.69;;;12.89;100.00
68075;BME280;54864;52.002;5.468;2023-10-19T00:50:23;99096.50;;;12.94;100.00
68075;BME280;54864;52.002;5.468;2023-10-19T00:51:29;99086.16;;;13.02;100.00
68075;BME280;54864;52.002;5.468;2023-10-19T00:52:42;99091.66;;;12.99;100.00
68075;BME280;54864;52.002;5.468;2023-10-19T00:53:50;99081.09;;;12.99;100.00
68075;BME280;54864;52.002;5.468;2023-10-19T00:54:51;99085.31;;;13.02;100.00
68075;BME280;54864;52.002;5.468;2023-10-19T00:55:58;99089.00;;;13.11;100.00
68075;BME280;54864;52.002;5.468;2023-10-19T00:57:02;99094.03;;;13.14;100.00
68075;BME280;54864;52.002;5.468;2023-10-19T00:58:07;99096.34;;;13.07;100.00
68075;BME280;54864;52.002;5.468;2023-10-19T00:59:10;99083.69;;;13.11;100.00
68075;BME280;54864;52.002;5.468;2023-10-19T01:00:16;99079.97;;;13.13;100.00
68075;BME280;54864;52.002;5.468;2023-10-19T01:01:24;99071.16;;;13.24;100.00
68075;BME280;54864;52.002;5.468;2023-10-19T01:02:28;99077.00;;;13.07;100.00
68075;BME280;54864;52.002;5.468;2023-10-19T01:03:29;99087.44;;;13.08;100.00
68075;BME280;54864;52.002;5.468;2023-10-19T01:04:35;99081.19;;;13.09;100.00
68075;BME280;54864;52.002;5.468;2023-10-19T01:05:36;99083.97;;;13.08;100.00
68075;BME280;54864;52.002;5.468;2023-10-19T01:06:38;99082.47;;;13.15;100.00
68075;BME280;54864;52.002;5.468;2023-10-19T01:07:39;99079.69;;;13.16;100.00
68075;BME280;54864;52.002;5.468;2023-10-19T01:08:42;99080.44;;;13.18;100.00
68075;BME280;54864;52.002;5.468;2023-10-19T01:09:43;99081.16;;;13.20;100.00
68075;BME280;54864;52.002;5.468;2023-10-19T01:10:47;99085.09;;;13.26;100.00
68075;BME280;54864;52.002;5.468;2023-10-19T01:11:52;99077.88;;;13.28;100.00
68075;BME280;54864;52.002;5.468;2023-10-19T01:12:54;99077.22;;;13.36;100.00
68075;BME280;54864;52.002;5.468;2023-10-19T01:13:56;99077.78;;;13.39;100.00
68075;BME280;54864;52.002;5.468;2023-10-19T01:15:05;99076.94;;;13.39;100.00
68075;BME280;54864;52.002;5.468;2023-10-19T01:16:11;99074.19;;;13.40;100.00
68075;BME280;54864;52.002;5.468;2023-10-19T01:17:16;99054.41;;;13.44;100.00
68075;BME280;54864;52.002;5.468;2023-10-19T01:18:17;99065.25;;;13.41;100.00
68075;BME280;54864;52.002;5.468;2023-10-19T01:19:20;99072.19;;;13.32;100.00
68075;BME280;54864;52.002;5.468;2023-10-19T01:20:22;99071.66;;;13.39;100.00
68075;BME280;54864;52.002;5.468;2023-10-19T01:21:34;99074.88;;;13.42;100.00
68075;BME280;54864;52.002;5.468;2023-10-19T01:23:41;99068.03;;;13.40;100.00
68075;BME280;54864;52.002;5.468;2023-10-19T01:24:42;99068.75;;;13.42;100.00
68075;BME280;54864;52.002;5.468;2023-10-19T01:25:44;99073.53;;;13.48;100.00
68075;BME280;54864;52.002;5.468;2023-10-19T01:26:50;99072.41;;;13.50;100.00
68075;BME280;54864;52.002;5.468;2023-10-19T01:28:06;99075.19;;;13.49;100.00
68075;BME280;54864;52.002;5.468;2023-10-19T01:29:07;99074.09;;;13.51;100.00
68075;BME280;54864;52.002;5.468;2023-10-19T01:30:13;99066.03;;;13.53;100.00
68075;BME280;54864;52.002;5.468;2023-10-19T01:31:18;99071.75;;;13.58;100.00
68075;BME280;54864;52.002;5.468;2023-10-19T01:32:31;99076.44;;;13.66;100.00
68075;BME280;54864;52.002;5.468;2023-10-19T01:33:31;99070.75;;;13.70;100.00
68075;BME280;54864;52.002;5.468;2023-10-19T01:34:34;99063.53;;;13.82;100.00
68075;BME280;54864;52.002;5.468;2023-10-19T01:35:35;99063.69;;;13.80;100.00
68075;BME280;54864;52.002;5.468;2023-10-19T01:36:51;99054.88;;;13.80;100.00
68075;BME280;54864;52.002;5.468;2023-10-19T01:38:00;99062.84;;;13.80;100.00
68075;BME280;54864;52.002;5.468;2023-10-19T01:39:03;99059.22;;;13.81;100.00
68075;BME280;54864;52.002;5.468;2023-10-19T01:40:10;99058.94;;;13.84;100.00
68075;BME280;54864;52.002;5.468;2023-10-19T01:41:15;99063.00;;;13.88;100.00
68075;BME280;54864;52.002;5.468;2023-10-19T01:42:18;99061.38;;;13.96;100.00
68075;BME280;54864;52.002;5.468;2023-10-19T01:43:19;99058.19;;;14.03;100.00
68075;BME280;54864;52.002;5.468;2023-10-19T01:44:21;99053.84;;;14.02;100.00
68075;BME280;54864;52.002;5.468;2023-10-19T01:45:25;99050.09;;;14.04;100.00
68075;BME280;54864;52.002;5.468;2023-10-19T01:46:25;99054.72;;;14.12;100.00
68075;BME280;54864;52.002;5.468;2023-10-19T01:47:30;99053.44;;;14.06;100.00
68075;BME280;54864;52.002;5.468;2023-10-19T01:48:32;99054.56;;;14.04;100.00
68075;BME280;54864;52.002;5.468;2023-10-19T01:49:34;99061.00;;;14.11;100.00
68075;BME280;54864;52.002;5.468;2023-10-19T01:50:37;99054.16;;;14.08;100.00
68075;BME280;54864;52.002;5.468;2023-10-19T01:51:39;99048.16;;;14.16;100.00
68075;BME280;54864;52.002;5.468;2023-10-19T01:52:43;99050.69;;;14.17;100.00
68075;BME280;54864;52.002;5.468;2023-10-19T01:53:44;99062.41;;;14.15;100.00
68075;BME280;54864;52.002;5.468;2023-10-19T01:54:47;99060.41;;;14.07;100.00
68075;BME280;54864;52.002;5.468;2023-10-19T01:55:49;99052.88;;;14.03;100.00
68075;BME280;54864;52.002;5.468;2023-10-19T01:56:57;99055.53;;;14.03;100.00
68075;BME280;54864;52.002;5.468;2023-10-19T01:57:58;99050.50;;;14.00;100.00
68075;BME280;54864;52.002;5.468;2023-10-19T01:59:00;99055.38;;;14.04;100.00
68075;BME280;54864;52.002;5.468;2023-10-19T02:00:01;99053.31;;;14.08;100.00
68075;BME280;54864;52.002;5.468;2023-10-19T02:01:11;99051.75;;;14.05;100.00
68075;BME280;54864;52.002;5.468;2023-10-19T02:02:20;99050.25;;;14.12;100.00
68075;BME280;54864;52.002;5.468;2023-10-19T02:03:23;99051.66;;;14.16;100.00
68075;BME280;54864;52.002;5.468;2023-10-19T02:04:25;99055.31;;;14.25;100.00
68075;BME280;54864;52.002;5.468;2023-10-19T02:05:27;99044.69;;;14.25;100.00
68075;BME280;54864;52.002;5.468;2023-10-19T02:06:34;99052.13;;;14.31;100.00
68075;BME280;54864;52.002;5.468;2023-10-19T02:07:37;99054.50;;;14.34;100.00
68075;BME280;54864;52.002;5.468;2023-10-19T02:08:38;99051.31;;;14.40;100.00
68075;BME280;54864;52.002;5.468;2023-10-19T02:09:39;99046.34;;;14.47;100.00
68075;BME280;54864;52.002;5.468;2023-10-19T02:10:46;99046.34;;;14.47;100.00
68075;BME280;54864;52.002;5.468;2023-10-19T02:11:49;99039.63;;;14.52;100.00
68075;BME280;54864;52.002;5.468;2023-10-19T02:12:53;99044.81;;;14.54;100.00
68075;BME280;54864;52.002;5.468;2023-10-19T02:13:57;99042.44;;;14.61;100.00
68075;BME280;54864;52.002;5.468;2023-10-19T02:15:00;99043.00;;;14.64;100.00
68075;BME280;54864;52.002;5.468;2023-10-19T02:16:00;99041.75;;;14.68;100.00
68075;BME280;54864;52.002;5.468;2023-10-19T02:17:01;99042.03;;;14.65;100.00
68075;BME280;54864;52.002;5.468;2023-10-19T02:18:07;99038.81;;;14.71;100.00
68075;BME280;54864;52.002;5.468;2023-10-19T02:19:09;99042.56;;;14.78;100.00
68075;BME280;54864;52.002;5.468;2023-10-19T02:20:11;99037.69;;;14.83;100.00
68075;BME280;54864;52.002;5.468;2023-10-19T02:21:18;99039.50;;;14.83;100.00
68075;BME280;54864;52.002;5.468;2023-10-19T02:22:22;99037.97;;;14.90;99.28
68075;BME280;54864;52.002;5.468;2023-10-19T02:23:24;99044.94;;;14.91;99.66
68075;BME280;54864;52.002;5.468;2023-10-19T02:24:25;99037.97;;;14.90;99.46
68075;BME280;54864;52.002;5.468;2023-10-19T02:25:27;99039.34;;;14.94;99.26
68075;BME280;54864;52.002;5.468;2023-10-19T02:26:30;99036.16;;;14.90;99.98
68075;BME280;54864;52.002;5.468;2023-10-19T02:27:31;99044.25;;;14.89;99.84
68075;BME280;54864;52.002;5.468;2023-10-19T02:28:33;99042.28;;;14.91;100.00
68075;BME280;54864;52.002;5.468;2023-10-19T02:29:37;99030.56;;;14.94;100.00
68075;BME280;54864;52.002;5.468;2023-10-19T02:30:38;99042.47;;;14.99;99.73
68075;BME280;54864;52.002;5.468;2023-10-19T02:31:41;99042.59;;;14.98;100.00
68075;BME280;54864;52.002;5.468;2023-10-19T02:32:42;99041.47;;;15.00;100.00
68075;BME280;54864;52.002;5.468;2023-10-19T02:33:43;99030.72;;;15.02;100.00
68075;BME280;54864;52.002;5.468;2023-10-19T02:34:46;99038.97;;;14.99;100.00
68075;BME280;54864;52.002;5.468;2023-10-19T02:35:47;99036.44;;;14.97;100.00
68075;BME280;54864;52.002;5.468;2023-10-19T02:36:49;99035.19;;;15.01;100.00
68075;BME280;54864;52.002;5.468;2023-10-19T02:37:49;99032.69;;;15.00;100.00
68075;BME280;54864;52.002;5.468;2023-10-19T02:38:50;99032.81;;;14.98;100.00
68075;BME280;54864;52.002;5.468;2023-10-19T02:39:52;99032.13;;;15.06;100.00
68075;BME280;54864;52.002;5.468;2023-10-19T02:40:53;99029.72;;;15.12;100.00
68075;BME280;54864;52.002;5.468;2023-10-19T02:41:55;99026.09;;;15.13;100.00
68075;BME280;54864;52.002;5.468;2023-10-19T02:42:59;99035.06;;;15.03;100.00
68075;BME280;54864;52.002;5.468;2023-10-19T02:44:04;99029.31;;;15.07;100.00
68075;BME280;54864;52.002;5.468;2023-10-19T02:45:10;99031.53;;;15.12;100.00
68075;BME280;54864;52.002;5.468;2023-10-19T02:46:12;99041.72;;;15.16;100.00
68075;BME280;54864;52.002;5.468;2023-10-19T02:47:13;99030.53;;;15.22;100.00
68075;BME280;54864;52.002;5.468;2023-10-19T02:48:14;99034.59;;;15.27;100.00
68075;BME280;54864;52.002;5.468;2023-10-19T02:49:17;99039.47;;;15.31;99.37
68075;BME280;54864;52.002;5.468;2023-10-19T02:50:18;99029.53;;;15.33;99.53
68075;BME280;54864;52.002;5.468;2023-10-19T02:51:23;99033.72;;;15.36;100.00
68075;BME280;54864;52.002;5.468;2023-10-19T02:52:24;99040.56;;;15.38;100.00
68075;BME280;54864;52.002;5.468;2023-10-19T02:53:27;99035.56;;;15.26;99.41
68075;BME280;54864;52.002;5.468;2023-10-19T02:54:28;99037.78;;;15.30;100.00
68075;BME280;54864;52.002;5.468;2023-10-19T02:55:33;99036.81;;;15.31;100.00
68075;BME280;54864;52.002;5.468;2023-10-19T02:56:35;99033.31;;;15.31;100.00
68075;BME280;54864;52.002;5.468;2023-10-19T02:57:37;99031.66;;;15.30;100.00
68075;BME280;54864;52.002;5.468;2023-10-19T02:58:41;99030.53;;;15.32;100.00
68075;BME280;54864;52.002;5.468;2023-10-19T02:59:42;99039.47;;;15.31;100.00
68075;BME280;54864;52.002;5.468;2023-10-19T03:00:47;99039.31;;;15.33;100.00
68075;BME280;54864;52.002;5.468;2023-10-19T03:01:48;99041.00;;;15.34;100.00
68075;BME280;54864;52.002;5.468;2023-10-19T03:02:48;99032.78;;;15.27;100.00
68075;BME280;54864;52.002;5.468;2023-10-19T03:03:52;99037.22;;;15.36;100.00
68075;BME280;54864;52.002;5.468;2023-10-19T03:04:54;99032.47;;;15.30;100.00
68075;BME280;54864;52.002;5.468;2023-10-19T03:05:55;99033.88;;;15.34;100.00
68075;BME280;54864;52.002;5.468;2023-10-19T03:06:56;99033.59;;;15.37;100.00
68075;BME280;54864;52.002;5.468;2023-10-19T03:07:57;99037.63;;;15.41;100.00
68075;BME280;54864;52.002;5.468;2023-10-19T03:08:59;99032.16;;;15.43;100.00
68075;BME280;54864;52.002;5.468;2023-10-19T03:10:01;99029.09;;;15.47;100.00
68075;BME280;54864;52.002;5.468;2023-10-19T03:11:02;99025.16;;;15.51;100.00
68075;BME280;54864;52.002;5.468;2023-10-19T03:12:09;99035.34;;;15.56;100.00
68075;BME280;54864;52.002;5.468;2023-10-19T03:13:11;99023.06;;;15.45;100.00
68075;BME280;54864;52.002;5.468;2023-10-19T03:14:15;99020.72;;;15.42;100.00
68075;BME280;54864;52.002;5.468;2023-10-19T03:15:17;99027.25;;;15.48;100.00
68075;BME280;54864;52.002;5.468;2023-10-19T03:16:21;99024.47;;;15.49;100.00
68075;BME280;54864;52.002;5.468;2023-10-19T03:17:23;99032.28;;;15.51;100.00
68075;BME280;54864;52.002;5.468;2023-10-19T03:18:24;99022.78;;;15.48;100.00
68075;BME280;54864;52.002;5.468;2023-10-19T03:19:27;99020.97;;;15.49;100.00
68075;BME280;54864;52.002;5.468;2023-10-19T03:20:27;99026.28;;;15.59;100.00
68075;BME280;54864;52.002;5.468;2023-10-19T03:21:28;99019.03;;;15.61;100.00
68075;BME280;54864;52.002;5.468;2023-10-19T03:22:34;99015.66;;;15.68;100.00
68075;BME280;54864;52.002;5.468;2023-10-19T03:23:35;99016.19;;;15.72;100.00
68075;BME280;54864;52.002;5.468;2023-10-19T03:24:38;99022.78;;;15.68;100.00
68075;BME280;54864;52.002;5.468;2023-10-19T03:25:41;99013.97;;;15.58;100.00
68075;BME280;54864;52.002;5.468;2023-10-19T03:27:17;99014.81;;;15.68;100.00
68075;BME280;54864;52.002;5.468;2023-10-19T03:28:29;99013.69;;;15.70;100.00
68075;BME280;54864;52.002;5.468;2023-10-19T03:29:35;99009.75;;;15.74;99.87
68075;BME280;54864;52.002;5.468;2023-10-19T03:30:39;99009.06;;;15.72;98.94
68075;BME280;54864;52.002;5.468;2023-10-19T03:31:39;99008.06;;;15.73;98.80
68075;BME280;54864;52.002;5.468;2023-10-19T03:32:43;99009.44;;;15.77;98.93
68075;BME280;54864;52.002;5.468;2023-10-19T03:33:45;99010.69;;;15.83;98.20
68075;BME280;54864;52.002;5.468;2023-10-19T03:34:49;99005.91;;;15.87;97.98
68075;BME280;54864;52.002;5.468;2023-10-19T03:35:55;99006.88;;;15.85;97.47
68075;BME280;54864;52.002;5.468;2023-10-19T03:36:56;99010.56;;;15.75;99.34
68075;BME280;54864;52.002;5.468;2023-10-19T03:38:02;99010.44;;;15.76;99.98
68075;BME280;54864;52.002;5.468;2023-10-19T03:39:08;99012.78;;;15.79;99.08
68075;BME280;54864;52.002;5.468;2023-10-19T03:40:13;99007.34;;;15.81;98.72
68075;BME280;54864;52.002;5.468;2023-10-19T03:41:20;99002.75;;;15.73;98.65
68075;BME280;54864;52.002;5.468;2023-10-19T03:42:27;99005.38;;;15.83;97.84
68075;BME280;54864;52.002;5.468;2023-10-19T03:43:34;99005.63;;;15.90;97.05
68075;BME280;54864;52.002;5.468;2023-10-19T03:44:35;99000.59;;;15.87;96.73
68075;BME280;54864;52.002;5.468;2023-10-19T03:45:45;98999.59;;;15.88;96.83
68075;BME280;54864;52.002;5.468;2023-10-19T03:46:50;98997.25;;;15.84;97.19
68075;BME280;54864;52.002;5.468;2023-10-19T03:47:57;98996.56;;;15.82;99.07
68075;BME280;54864;52.002;5.468;2023-10-19T03:49:01;98991.94;;;15.84;99.01
68075;BME280;54864;52.002;5.468;2023-10-19T03:50:08;98994.28;;;15.88;98.34
68075;BME280;54864;52.002;5.468;2023-10-19T03:51:14;98990.13;;;15.85;97.77
68075;BME280;54864;52.002;5.468;2023-10-19T03:52:17;98992.19;;;15.91;97.47
68075;BME280;54864;52.002;5.468;2023-10-19T03:53:21;99000.53;;;15.96;96.91
68075;BME280;54864;52.002;5.468;2023-10-19T03:54:23;98998.31;;;15.92;96.83
68075;BME280;54864;52.002;5.468;2023-10-19T03:55:25;98994.00;;;15.91;96.28
68075;BME280;54864;52.002;5.468;2023-10-19T03:56:29;98994.00;;;15.91;96.25
68075;BME280;54864;52.002;5.468;2023-10-19T03:57:33;98994.28;;;15.88;96.43
68075;BME280;54864;52.002;5.468;2023-10-19T03:58:37;98997.19;;;15.94;96.72
68075;BME280;54864;52.002;5.468;2023-10-19T03:59:38;98998.38;;;15.82;97.82
68075;BME280;54864;52.002;5.468;2023-10-19T04:00:40;99002.41;;;15.86;98.87
68075;BME280;54864;52.002;5.468;2023-10-19T04:01:41;98997.25;;;15.84;98.92
68075;BME280;54864;52.002;5.468;2023-10-19T04:02:43;98999.31;;;15.91;98.98
68075;BME280;54864;52.002;5.468;2023-10-19T04:03:44;98998.19;;;15.93;98.66
68075;BME280;54864;52.002;5.468;2023-10-19T04:04:46;98994.44;;;15.86;98.49
68075;BME280;54864;52.002;5.468;2023-10-19T04:05:48;98990.94;;;15.85;97.87
68075;BME280;54864;52.002;5.468;2023-10-19T04:06:50;98987.75;;;15.82;98.21
68075;BME280;54864;52.002;5.468;2023-10-19T04:07:57;98992.91;;;15.83;98.38
68075;BME280;54864;52.002;5.468;2023-10-19T04:08:59;98991.34;;;15.91;98.10
68075;BME280;54864;52.002;5.468;2023-10-19T04:10:00;98995.38;;;15.95;97.92
68075;BME280;54864;52.002;5.468;2023-10-19T04:11:09;98989.53;;;15.91;97.99
68075;BME280;54864;52.002;5.468;2023-10-19T04:12:21;98992.56;;;15.96;97.75
68075;BME280;54864;52.002;5.468;2023-10-19T04:13:22;98988.00;;;15.89;97.83
68075;BME280;54864;52.002;5.468;2023-10-19T04:14:25;98993.84;;;15.92;97.96
68075;BME280;54864;52.002;5.468;2023-10-19T04:15:27;98990.19;;;15.93;98.28
68075;BME280;54864;52.002;5.468;2023-10-19T04:16:33;98990.59;;;15.98;98.46
68075;BME280;54864;52.002;5.468;2023-10-19T04:17:37;98992.97;;;16.01;98.09
68075;BME280;54864;52.002;5.468;2023-10-19T04:18:40;98988.78;;;15.99;98.20
68075;BME280;54864;52.002;5.468;2023-10-19T04:19:44;98990.00;;;16.04;98.00
68075;BME280;54864;52.002;5.468;2023-10-19T04:20:44;98988.03;;;16.06;97.78
68075;BME280;54864;52.002;5.468;2023-10-19T04:22:00;98988.56;;;16.10;96.75
68075;BME280;54864;52.002;5.468;2023-10-19T04:23:02;98978.09;;;16.08;96.88
68075;BME280;54864;52.002;5.468;2023-10-19T04:24:10;98985.91;;;16.10;96.49
68075;BME280;54864;52.002;5.468;2023-10-19T04:25:13;98976.09;;;16.10;96.21
68075;BME280;54864;52.002;5.468;2023-10-19T04:26:14;98982.13;;;16.12;95.97
68075;BME280;54864;52.002;5.468;2023-10-19T04:27:18;98973.91;;;16.06;95.63
68075;BME280;54864;52.002;5.468;2023-10-19T04:28:21;98979.50;;;16.03;96.37
68075;BME280;54864;52.002;5.468;2023-10-19T04:29:31;98987.50;;;16.03;96.96
68075;BME280;54864;52.002;5.468;2023-10-19T04:30:35;98993.66;;;16.03;96.32
68075;BME280;54864;52.002;5.468;2023-10-19T04:31:37;98991.44;;;15.99;95.30
68075;BME280;54864;52.002;5.468;2023-10-19T04:32:49;98983.47;;;15.99;94.79
68075;BME280;54864;52.002;5.468;2023-10-19T04:33:50;98988.53;;;15.92;95.24
68075;BME280;54864;52.002;5.468;2023-10-19T04:34:54;98992.91;;;15.83;95.58
68075;BME280;54864;52.002;5.468;2023-10-19T04:35:55;98988.44;;;15.84;95.22
68075;BME280;54864;52.002;5.468;2023-10-19T04:36:56;98988.28;;;15.85;nan
68075;BME280;54864;52.002;5.468;2023-10-19T04:37:58;98994.88;;;15.81;94.43
68075;BME280;54864;52.002;5.468;2023-10-19T04:38:58;98997.09;;;15.86;93.78
68075;BME280;54864;52.002;5.468;2023-10-19T04:40:00;98992.78;;;15.85;93.12
68075;BME280;54864;52.002;5.468;2023-10-19T04:41:05;98990.13;;;15.85;92.52
68075;BME280;54864;52.002;5.468;2023-10-19T04:42:08;98987.91;;;15.80;92.31
68075;BME280;54864;52.002;5.468;2023-10-19T04:43:09;98988.88;;;15.79;92.13
68075;BME280;54864;52.002;5.468;2023-10-19T04:44:09;98986.91;;;15.81;91.78
68075;BME280;54864;52.002;5.468;2023-10-19T04:45:13;98989.56;;;15.81;91.63
68075;BME280;54864;52.002;5.468;2023-10-19T04:46:14;98997.16;;;15.76;91.43
68075;BME280;54864;52.002;5.468;2023-10-19T04:47:16;98996.31;;;15.76;91.39
68075;BME280;54864;52.002;5.468;2023-10-19T04:48:17;99002.59;;;15.75;91.38
68075;BME280;54864;52.002;5.468;2023-10-19T04:49:19;98994.09;;;15.71;91.39
68075;BME280;54864;52.002;5.468;2023-10-19T04:50:19;98990.59;;;15.71;90.94
68075;BME280;54864;52.002;5.468;2023-10-19T04:51:21;98995.53;;;15.66;91.53
68075;BME280;54864;52.002;5.468;2023-10-19T04:52:22;98991.19;;;15.65;91.42
68075;BME280;54864;52.002;5.468;2023-10-19T04:53:24;98987.00;;;15.62;91.51
68075;BME280;54864;52.002;5.468;2023-10-19T04:54:24;98989.81;;;15.61;91.40
68075;BME280;54864;52.002;5.468;2023-10-19T04:55:28;99002.09;;;15.62;91.21
68075;BME280;54864;52.002;5.468;2023-10-19T04:56:30;98999.44;;;15.62;91.42
68075;BME280;54864;52.002;5.468;2023-10-19T04:57:32;98992.84;;;15.56;92.29
68075;BME280;54864;52.002;5.468;2023-10-19T04:58:33;98994.94;;;15.52;92.44
68075;BME280;54864;52.002;5.468;2023-10-19T04:59:35;98990.19;;;15.56;92.84
68075;BME280;54864;52.002;5.468;2023-10-19T05:00:37;98994.94;;;15.52;93.60
68075;BME280;54864;52.002;5.468;2023-10-19T05:01:39;99000.13;;;15.54;93.90
68075;BME280;54864;52.002;5.468;2023-10-19T05:02:41;98998.88;;;15.48;94.26
68075;BME280;54864;52.002;5.468;2023-10-19T05:03:43;99002.91;;;15.52;94.77
68075;BME280;54864;52.002;5.468;2023-10-19T05:04:44;98999.97;;;15.55;95.09
68075;BME280;54864;52.002;5.468;2023-10-19T05:05:46;98997.47;;;15.54;95.11
68075;BME280;54864;52.002;5.468;2023-10-19T05:06:47;99000.81;;;15.56;95.00
68075;BME280;54864;52.002;5.468;2023-10-19T05:07:49;99002.38;;;15.59;94.70
68075;BME280;54864;52.002;5.468;2023-10-19T05:08:49;99002.22;;;15.60;95.19
68075;BME280;54864;52.002;5.468;2023-10-19T05:09:52;99004.19;;;15.58;95.09
68075;BME280;54864;52.002;5.468;2023-10-19T05:10:54;99007.41;;;15.62;95.17
68075;BME280;54864;52.002;5.468;2023-10-19T05:11:56;99009.34;;;15.60;94.99
68075;BME280;54864;52.002;5.468;2023-10-19T05:12:57;99010.44;;;15.57;95.86
68075;BME280;54864;52.002;5.468;2023-10-19T05:13:59;99006.59;;;15.61;95.50
68075;BME280;54864;52.002;5.468;2023-10-19T05:15:00;99003.47;;;15.56;95.98
68075;BME280;54864;52.002;5.468;2023-10-19T05:16:03;99001.94;;;15.53;96.37
68075;BME280;54864;52.002;5.468;2023-10-19T05:17:04;99000.69;;;15.58;96.85
68075;BME280;54864;52.002;5.468;2023-10-19T05:18:06;99003.94;;;15.61;96.98
68075;BME280;54864;52.002;5.468;2023-10-19T05:19:07;99010.59;;;15.55;97.34
68075;BME280;54864;52.002;5.468;2023-10-19T05:20:09;99016.38;;;15.61;97.26
68075;BME280;54864;52.002;5.468;2023-10-19T05:21:11;99014.13;;;15.66;97.03
68075;BME280;54864;52.002;5.468;2023-10-19T05:22:13;99016.47;;;15.69;96.77
68075;BME280;54864;52.002;5.468;2023-10-19T05:23:13;99017.16;;;15.71;96.77
68075;BME280;54864;52.002;5.468;2023-10-19T05:24:15;99012.25;;;15.76;96.08
68075;BME280;54864;52.002;5.468;2023-10-19T05:25:16;99019.25;;;15.77;96.06
68075;BME280;54864;52.002;5.468;2023-10-19T05:26:17;99011.56;;;15.74;95.78
68075;BME280;54864;52.002;5.468;2023-10-19T05:27:18;99010.28;;;15.78;95.66
68075;BME280;54864;52.002;5.468;2023-10-19T05:28:20;99015.06;;;15.74;96.41
68075;BME280;54864;52.002;5.468;2023-10-19T05:29:22;99007.09;;;15.74;96.89
68075;BME280;54864;52.002;5.468;2023-10-19T05:30:24;99013.09;;;15.76;96.73
68075;BME280;54864;52.002;5.468;2023-10-19T05:31:26;99016.28;;;15.80;96.91
68075;BME280;54864;52.002;5.468;2023-10-19T05:32:28;99012.50;;;15.82;96.32
68075;BME280;54864;52.002;5.468;2023-10-19T05:33:30;99020.03;;;15.87;96.35
68075;BME280;54864;52.002;5.468;2023-10-19T05:34:33;99024.06;;;15.91;95.65
68075;BME280;54864;52.002;5.468;2023-10-19T05:35:35;99025.88;;;15.91;95.56